Terminal Aerodrome Forecast
Issued by NWS

Home | Current Version | Previous Version | Text Only | Print | Product List | Glossary On
Versions: 1 2 3 4 5 6 7 8 9 10 11 12 13 14 15 16
716
FTUS41 KLWX 171135
TAFMTN
TAF
KMTN 171135Z 1712/1812 32009KT 1 1/2SM -SN OVC020
     FM171300 32010G18KT 3SM -SN OVC025
     FM171400 32013G25KT P6SM OVC035
     FM180000 31011G19KT P6SM SCT130=

USA.gov is the U.S. government's official web portal to all federal, state and local government web resources and services.